createdAt,value
2023-02-21T00:00:05.762Z,74.43
2023-02-21T00:03:11.838Z,64.88
2023-02-21T00:05:57.915Z,66.35
2023-02-21T00:08:44.016Z,60.15
2023-02-21T00:11:30.141Z,69.25
2023-02-21T00:14:16.107Z,64.13
2023-02-21T00:17:02.315Z,66.72
2023-02-21T00:19:48.313Z,74.88
2023-02-21T00:22:34.306Z,73.75
2023-02-21T00:25:20.591Z,70.90
2023-02-21T00:28:06.635Z,65.55
2023-02-21T00:30:52.744Z,64.95
2023-02-21T00:33:38.743Z,71.05
2023-02-21T00:36:25.161Z,66.78
2023-02-21T00:39:11.155Z,66.13
2023-02-21T00:41:57.067Z,69.70
2023-02-21T00:44:43.044Z,68.57
2023-02-21T00:47:29.235Z,63.53
2023-02-21T00:50:15.223Z,63.72
2023-02-21T00:53:01.138Z,62.03
2023-02-21T00:55:46.906Z,61.15
2023-02-21T00:58:32.643Z,65.70
2023-02-21T01:01:18.550Z,64.93
2023-02-21T01:04:05.099Z,62.10
2023-02-21T01:06:50.896Z,70.15
2023-02-21T01:09:36.795Z,66.28
2023-02-21T01:12:22.685Z,60.67
2023-02-21T01:15:08.662Z,58.63
2023-02-21T01:17:54.299Z,65.93
2023-02-21T01:20:40.348Z,72.40
2023-02-21T01:23:26.387Z,68.85
2023-02-21T01:26:12.147Z,58.00
2023-02-21T01:28:58.067Z,67.53
2023-02-21T01:31:44.109Z,69.25
2023-02-21T01:34:33.694Z,64.43
2023-02-21T01:37:21.074Z,64.15
2023-02-21T01:40:08.713Z,72.68
2023-02-21T01:42:54.660Z,61.42
2023-02-21T01:45:41.496Z,75.15
2023-02-21T01:48:33.615Z,69.80
2023-02-21T01:51:21.941Z,68.32
2023-02-21T01:54:08.276Z,65.07
2023-02-21T01:56:55.788Z,65.63
2023-02-21T01:59:43.539Z,65.18
2023-02-21T02:03:08.890Z,71.40
2023-02-21T02:08:45.937Z,65.60
2023-02-21T02:12:09.769Z,63.47
2023-02-21T02:14:46.228Z,70.70
2023-02-21T02:17:37.099Z,72.75
2023-02-21T02:20:42.187Z,68.78
2023-02-21T02:23:16.450Z,74.38
2023-02-21T02:26:00.927Z,66.03
2023-02-21T02:28:46.559Z,74.60
2023-02-21T02:31:42.641Z,74.20
2023-02-21T02:34:35.474Z,67.82
2023-02-21T02:37:40.128Z,68.90
2023-02-21T02:42:52.534Z,72.20
2023-02-21T02:45:36.646Z,69.22
2023-02-21T02:50:56.314Z,76.15
2023-02-21T02:53:30.110Z,70.03
2023-02-21T02:56:02.370Z,69.43
2023-02-21T02:58:52.864Z,64.03
2023-02-21T03:01:42.260Z,70.10
2023-02-21T03:04:41.011Z,66.55
2023-02-21T03:07:18.156Z,75.18
2023-02-21T03:10:26.308Z,76.20
2023-02-21T03:13:05.319Z,68.55
2023-02-21T03:15:41.135Z,73.72
2023-02-21T03:18:17.734Z,76.68
2023-02-21T03:20:50.653Z,69.07
2023-02-21T03:23:21.291Z,76.10
2023-02-21T03:25:51.467Z,69.57
2023-02-21T03:28:20.945Z,73.90
2023-02-21T03:30:53.306Z,79.82
2023-02-21T03:33:20.924Z,65.38
2023-02-21T03:35:49.004Z,66.38
2023-02-21T03:38:16.506Z,73.60
2023-02-21T03:40:44.006Z,72.38
2023-02-21T03:43:11.637Z,66.13
2023-02-21T03:45:47.877Z,64.65
2023-02-21T03:48:30.974Z,60.58
2023-02-21T03:51:05.143Z,60.22
2023-02-21T03:53:36.872Z,70.82
2023-02-21T03:56:06.190Z,68.57
2023-02-21T03:59:03.322Z,68.22
2023-02-21T04:01:30.849Z,75.70
2023-02-21T04:03:58.404Z,67.22
2023-02-21T04:06:27.286Z,63.92
2023-02-21T04:08:55.596Z,59.53
2023-02-21T04:11:25.221Z,62.17
2023-02-21T04:13:54.210Z,61.63
2023-02-21T04:16:21.755Z,68.97
2023-02-21T04:18:53.169Z,62.35
2023-02-21T04:21:21.153Z,64.55
2023-02-21T04:23:50.568Z,58.55
2023-02-21T04:26:18.152Z,66.53
2023-02-21T04:28:51.488Z,66.13
2023-02-21T04:31:19.774Z,68.90
2023-02-21T04:33:47.337Z,67.20
2023-02-21T04:36:21.488Z,63.47
2023-02-21T04:38:50.579Z,75.10
2023-02-21T04:41:18.113Z,76.25
2023-02-21T04:43:45.819Z,72.57
2023-02-21T04:46:16.512Z,72.85
2023-02-21T04:48:49.451Z,68.35
2023-02-21T04:51:20.237Z,66.70
2023-02-21T04:53:49.370Z,67.30
2023-02-21T04:56:21.051Z,70.70
2023-02-21T04:58:48.909Z,71.03
2023-02-21T05:01:18.410Z,67.78
2023-02-21T05:03:46.563Z,65.13
2023-02-21T05:06:18.927Z,68.68
2023-02-21T05:08:46.409Z,69.75
2023-02-21T05:11:14.713Z,64.72
2023-02-21T05:13:42.843Z,72.72
2023-02-21T05:16:10.906Z,61.97
2023-02-21T05:18:39.044Z,57.60
2023-02-21T05:21:07.188Z,67.07
2023-02-21T05:23:35.708Z,69.70
2023-02-21T05:26:09.794Z,62.70
2023-02-21T05:28:38.578Z,65.47
2023-02-21T05:31:06.929Z,62.45
2023-02-21T05:33:34.459Z,62.95
2023-02-21T05:36:02.119Z,67.00
2023-02-21T05:38:29.956Z,69.15
2023-02-21T05:40:57.367Z,65.43
2023-02-21T05:43:24.788Z,73.78
2023-02-21T05:45:52.163Z,64.18
2023-02-21T05:48:19.609Z,71.00
2023-02-21T05:50:46.958Z,70.28
2023-02-21T05:53:14.341Z,83.25
2023-02-21T05:55:41.745Z,77.68
2023-02-21T05:58:09.182Z,70.20
2023-02-21T06:00:36.709Z,73.55
2023-02-21T06:03:05.091Z,74.25
2023-02-21T06:05:32.590Z,66.95
2023-02-21T06:08:00.149Z,74.95
2023-02-21T06:10:27.542Z,75.22
2023-02-21T06:12:54.911Z,72.90
2023-02-21T06:15:22.275Z,66.72
2023-02-21T06:17:49.641Z,69.72
2023-02-21T06:20:17.814Z,63.45
2023-02-21T06:22:45.359Z,72.45
2023-02-21T06:25:12.810Z,61.05
2023-02-21T06:27:40.253Z,65.75
2023-02-21T06:30:08.119Z,61.47
2023-02-21T06:32:35.690Z,65.55
2023-02-21T06:35:04.641Z,61.53
2023-02-21T06:37:32.014Z,72.22
2023-02-21T06:39:59.423Z,67.95
2023-02-21T06:42:27.918Z,73.50
2023-02-21T06:44:55.352Z,68.03
2023-02-21T06:47:22.765Z,75.30
2023-02-21T06:49:50.134Z,65.18
2023-02-21T06:52:17.554Z,66.20
2023-02-21T06:54:46.097Z,63.42
2023-02-21T06:57:13.455Z,67.65
2023-02-21T06:59:41.355Z,62.80
2023-02-21T07:02:18.392Z,63.53
2023-02-21T07:04:47.396Z,70.68
2023-02-21T07:07:15.184Z,68.32
2023-02-21T07:09:42.746Z,66.00
2023-02-21T07:12:10.203Z,59.67
2023-02-21T07:14:37.585Z,75.93
2023-02-21T07:17:05.022Z,60.40
2023-02-21T07:19:32.379Z,59.05
2023-02-21T07:21:59.802Z,60.80
2023-02-21T07:24:27.242Z,68.55
2023-02-21T07:26:55.185Z,63.22
2023-02-21T07:29:22.697Z,68.07
2023-02-21T07:31:50.164Z,60.08
2023-02-21T07:34:17.651Z,59.33
2023-02-21T07:36:45.136Z,60.70
2023-02-21T07:39:12.888Z,59.15
2023-02-21T07:41:40.263Z,68.57
2023-02-21T07:44:10.338Z,62.85
2023-02-21T07:46:37.811Z,68.57
2023-02-21T07:49:05.322Z,71.75
2023-02-21T07:51:32.712Z,67.90
2023-02-21T07:54:00.124Z,63.45
2023-02-21T07:56:27.604Z,65.88
2023-02-21T07:58:54.954Z,65.03
2023-02-21T08:01:25.291Z,69.05
2023-02-21T08:03:52.788Z,66.07
2023-02-21T08:06:20.218Z,68.43
2023-02-21T08:08:47.622Z,67.55
2023-02-21T08:11:15.240Z,63.45
2023-02-21T08:13:42.709Z,65.10
2023-02-21T08:16:10.141Z,63.85
2023-02-21T08:18:37.616Z,62.80
2023-02-21T08:21:09.782Z,63.90
2023-02-21T08:23:37.216Z,78.07
2023-02-21T08:26:05.437Z,69.53
2023-02-21T08:28:34.787Z,70.68
2023-02-21T08:31:02.293Z,65.05
2023-02-21T08:37:14.690Z,66.78
2023-02-21T08:39:46.119Z,65.88
2023-02-21T08:42:14.345Z,74.50
2023-02-21T08:44:45.327Z,83.45
2023-02-21T08:47:14.593Z,65.15
2023-02-21T08:50:28.290Z,70.60
2023-02-21T08:56:48.314Z,75.93
2023-02-21T08:59:21.599Z,82.40
2023-02-21T09:01:49.589Z,77.30
2023-02-21T09:04:17.270Z,82.68
2023-02-21T09:06:44.629Z,81.00
2023-02-21T09:09:12.004Z,76.88
2023-02-21T09:11:53.980Z,77.30
2023-02-21T09:14:21.896Z,78.10
2023-02-21T09:16:49.401Z,77.00
2023-02-21T09:19:36.122Z,84.88
2023-02-21T09:25:40.201Z,84.43
2023-02-21T09:28:39.513Z,79.50
2023-02-21T09:31:38.708Z,76.85
2023-02-21T09:34:17.852Z,77.63
2023-02-21T09:36:49.564Z,78.70
2023-02-21T09:39:20.613Z,83.30
2023-02-21T09:41:52.225Z,72.28
2023-02-21T09:44:28.779Z,78.10
2023-02-21T09:47:04.429Z,74.50
2023-02-21T09:49:37.420Z,73.32
2023-02-21T09:52:07.645Z,81.03
2023-02-21T09:54:43.715Z,77.38
2023-02-21T09:57:15.655Z,77.80
2023-02-21T09:59:43.131Z,76.88
2023-02-21T10:02:21.379Z,83.05
2023-02-21T10:05:10.335Z,83.05
2023-02-21T10:07:49.993Z,81.35
2023-02-21T10:10:25.266Z,78.68
2023-02-21T10:13:38.724Z,80.53
2023-02-21T10:16:28.800Z,81.45
2023-02-21T10:19:19.913Z,77.25
2023-02-21T10:21:55.005Z,75.93
2023-02-21T10:24:40.719Z,72.25
2023-02-21T10:27:17.997Z,72.72
2023-02-21T10:29:49.883Z,75.93
2023-02-21T10:32:18.634Z,77.40
2023-02-21T10:34:48.925Z,73.30
2023-02-21T10:37:50.271Z,78.43
2023-02-21T10:40:33.597Z,76.47
2023-02-21T10:43:24.710Z,74.55
2023-02-21T10:46:09.150Z,77.38
2023-02-21T10:48:45.042Z,75.35
2023-02-21T10:51:19.020Z,78.05
2023-02-21T10:53:48.766Z,78.78
2023-02-21T10:56:22.159Z,81.75
2023-02-21T10:58:53.938Z,74.50
2023-02-21T11:01:22.142Z,74.35
2023-02-21T11:03:53.449Z,74.13
2023-02-21T11:06:38.264Z,77.75
2023-02-21T11:09:24.964Z,75.30
2023-02-21T11:12:03.441Z,69.57
2023-02-21T11:14:32.747Z,70.32
2023-02-21T11:17:19.266Z,83.10
2023-02-21T11:19:49.725Z,76.95
2023-02-21T11:22:52.542Z,71.20
2023-02-21T11:25:48.478Z,74.40
2023-02-21T11:28:20.707Z,74.60
2023-02-21T11:31:09.212Z,71.97
2023-02-21T11:33:41.513Z,69.35
2023-02-21T11:36:39.123Z,73.28
2023-02-21T11:39:19.181Z,68.88
2023-02-21T11:41:54.607Z,73.05
2023-02-21T11:44:35.289Z,71.68
2023-02-21T11:47:46.579Z,69.50
2023-02-21T11:50:34.721Z,70.22
2023-02-21T11:53:29.086Z,72.13
2023-02-21T11:58:38.181Z,70.13
2023-02-21T12:01:15.987Z,68.07
2023-02-21T12:04:10.727Z,74.03
2023-02-21T12:06:43.952Z,67.40
2023-02-21T12:09:19.535Z,69.22
2023-02-21T12:12:02.479Z,68.10
2023-02-21T12:14:49.508Z,68.07
2023-02-21T12:17:32.461Z,58.20
2023-02-21T12:20:26.206Z,63.83
2023-02-21T12:23:22.344Z,60.22
2023-02-21T12:26:11.448Z,65.90
2023-02-21T12:29:17.259Z,61.78
2023-02-21T12:32:06.979Z,53.40
2023-02-21T12:35:03.599Z,60.55
2023-02-21T12:37:54.715Z,57.17
2023-02-21T12:40:54.815Z,60.10
2023-02-21T12:44:00.984Z,65.15
2023-02-21T12:46:40.304Z,52.72
2023-02-21T12:49:17.399Z,62.78
2023-02-21T12:51:50.838Z,59.70
2023-02-21T12:54:45.059Z,59.03
2023-02-21T13:00:17.936Z,49.03
2023-02-21T13:03:31.859Z,55.47
2023-02-21T13:06:15.708Z,48.10
2023-02-21T13:09:05.491Z,53.42
2023-02-21T13:12:01.635Z,56.90
2023-02-21T13:14:37.614Z,51.60
2023-02-21T13:17:05.264Z,57.60
2023-02-21T13:19:42.622Z,51.97
2023-02-21T13:22:48.495Z,50.88
2023-02-21T13:25:43.809Z,48.97
2023-02-21T13:28:27.975Z,59.13
2023-02-21T13:31:01.225Z,46.95
2023-02-21T13:33:49.100Z,50.67
2023-02-21T13:36:43.494Z,54.55
2023-02-21T13:39:17.504Z,46.88
2023-02-21T13:41:56.571Z,50.50
2023-02-21T13:44:30.591Z,47.58
2023-02-21T13:47:10.594Z,44.80
2023-02-21T13:49:58.247Z,45.33
2023-02-21T13:52:27.740Z,49.45
2023-02-21T13:55:16.205Z,36.25
2023-02-21T13:57:49.098Z,35.40
2023-02-21T14:00:23.578Z,39.60
2023-02-21T14:02:59.449Z,39.58
2023-02-21T14:05:50.392Z,43.20
2023-02-21T14:08:27.775Z,41.53
2023-02-21T14:11:08.143Z,43.33
2023-02-21T14:18:11.147Z,39.03
2023-02-21T14:20:38.696Z,39.15
2023-02-21T14:23:06.543Z,39.80
2023-02-21T14:25:35.502Z,40.28
2023-02-21T14:28:22.770Z,39.50
2023-02-21T14:31:02.175Z,46.17
2023-02-21T14:33:30.806Z,42.30
2023-02-21T14:36:07.582Z,50.03
2023-02-21T14:38:41.879Z,39.83
2023-02-21T14:41:44.867Z,37.83
2023-02-21T14:44:24.554Z,34.97
2023-02-21T14:46:54.587Z,43.40
2023-02-21T14:50:00.663Z,39.78
2023-02-21T14:52:52.371Z,43.75
2023-02-21T14:55:19.693Z,43.05
2023-02-21T14:58:14.118Z,43.05
2023-02-21T15:01:15.961Z,36.45
2023-02-21T15:04:12.734Z,36.95
2023-02-21T15:06:44.552Z,45.70
2023-02-21T15:09:17.981Z,35.58
2023-02-21T15:14:23.579Z,25.17
2023-02-21T15:16:58.621Z,36.97
2023-02-21T15:19:30.102Z,34.97
2023-02-21T15:22:24.439Z,35.78
2023-02-21T15:25:10.893Z,33.70
2023-02-21T15:27:50.997Z,29.60
2023-02-21T15:30:31.195Z,30.48
2023-02-21T15:33:18.998Z,25.13
2023-02-21T15:35:51.547Z,25.92
2023-02-21T15:38:43.752Z,23.97
2023-02-21T15:41:22.987Z,26.90
2023-02-21T15:43:53.534Z,30.90
2023-02-21T15:46:28.346Z,30.00
2023-02-21T15:48:59.802Z,29.15
2023-02-21T15:51:27.546Z,28.40
2023-02-21T15:54:16.936Z,24.40
2023-02-21T15:56:45.717Z,30.25
2023-02-21T15:59:15.778Z,28.30
2023-02-21T16:01:43.336Z,28.88
2023-02-21T16:04:25.869Z,26.10
2023-02-21T16:06:57.931Z,27.58
2023-02-21T16:16:26.551Z,30.48
2023-02-21T16:22:21.651Z,27.42
2023-02-21T16:24:49.484Z,35.38
2023-02-21T16:27:18.407Z,31.55
2023-02-21T16:29:45.855Z,28.15
2023-02-21T16:32:21.134Z,30.55
2023-02-21T16:34:51.954Z,31.10
2023-02-21T16:37:19.354Z,28.80
2023-02-21T16:44:06.228Z,30.33
2023-02-21T16:46:33.654Z,33.38
2023-02-21T16:49:01.109Z,34.58
2023-02-21T16:51:33.774Z,35.15
2023-02-21T16:54:02.537Z,40.23
2023-02-21T16:56:30.092Z,33.78
2023-02-21T16:58:57.801Z,40.38
2023-02-21T17:01:30.465Z,43.65
2023-02-21T17:03:58.296Z,38.95
2023-02-21T17:06:27.202Z,45.95
2023-02-21T17:08:54.591Z,40.30
2023-02-21T17:15:23.053Z,42.65
2023-02-21T17:18:05.302Z,45.45
2023-02-21T17:20:32.772Z,34.25
2023-02-21T17:23:01.080Z,38.15
2023-02-21T17:25:29.266Z,41.22
2023-02-21T17:27:56.686Z,40.95
2023-02-21T17:30:25.206Z,40.58
2023-02-21T17:32:53.012Z,36.25
2023-02-21T17:35:22.558Z,36.67
2023-02-21T17:37:50.886Z,33.35
2023-02-21T17:40:20.452Z,41.33
2023-02-21T17:42:48.081Z,49.60
2023-02-21T17:45:19.428Z,50.00
2023-02-21T17:47:48.403Z,40.17
2023-02-21T18:00:40.195Z,41.85
2023-02-21T18:03:09.395Z,42.75
2023-02-21T18:05:37.567Z,42.30
2023-02-21T18:08:05.424Z,43.90
2023-02-21T18:10:32.813Z,48.42
2023-02-21T18:13:00.263Z,43.20
2023-02-21T18:15:28.921Z,49.60
2023-02-21T18:17:58.547Z,49.40
2023-02-21T18:20:25.994Z,57.05
2023-02-21T18:22:53.388Z,46.05
2023-02-21T18:25:22.699Z,44.72
2023-02-21T18:27:50.996Z,43.25
2023-02-21T18:30:19.204Z,49.78
2023-02-21T18:32:46.784Z,47.78
2023-02-21T18:35:18.017Z,49.15
2023-02-21T18:37:47.326Z,59.10
2023-02-21T18:40:16.546Z,49.13
2023-02-21T18:42:44.379Z,53.83
2023-02-21T18:45:12.320Z,48.72
2023-02-21T18:47:39.839Z,52.42
2023-02-21T18:50:07.985Z,62.85
2023-02-21T18:52:35.408Z,51.20
2023-02-21T18:55:04.074Z,50.45
2023-02-21T18:57:31.795Z,51.05
2023-02-21T18:59:59.816Z,58.60
2023-02-21T19:02:27.362Z,53.33
2023-02-21T19:04:54.729Z,59.78
2023-02-21T19:07:22.237Z,57.58
2023-02-21T19:09:50.404Z,55.53
2023-02-21T19:12:18.248Z,56.65
2023-02-21T19:14:45.744Z,56.15
2023-02-21T19:17:13.181Z,52.95
2023-02-21T19:19:40.599Z,60.22
2023-02-21T19:22:08.057Z,57.42
2023-02-21T19:24:35.455Z,55.65
2023-02-21T19:27:04.045Z,50.78
2023-02-21T19:29:31.409Z,55.10
2023-02-21T19:31:59.146Z,63.92
2023-02-21T19:34:26.594Z,61.88
2023-02-21T19:36:54.035Z,57.65
2023-02-21T19:39:21.372Z,62.38
2023-02-21T19:41:48.916Z,61.53
2023-02-21T19:44:16.349Z,67.25
2023-02-21T19:46:43.882Z,59.65
2023-02-21T19:49:20.492Z,57.90
2023-02-21T19:51:49.788Z,53.47
2023-02-21T19:54:20.402Z,64.22
2023-02-21T19:56:47.863Z,63.58
2023-02-21T19:59:15.286Z,60.92
2023-02-21T20:01:42.827Z,61.55
2023-02-21T20:04:10.294Z,64.13
2023-02-21T20:06:37.983Z,54.28
2023-02-21T20:09:07.603Z,62.53
2023-02-21T20:11:35.940Z,65.53
2023-02-21T20:14:04.041Z,69.95
2023-02-21T20:16:33.640Z,67.53
2023-02-21T20:19:01.321Z,69.82
2023-02-21T20:21:30.790Z,65.22
2023-02-21T20:23:58.220Z,66.70
2023-02-21T20:26:26.695Z,66.43
2023-02-21T20:28:55.358Z,75.75
2023-02-21T20:31:28.260Z,72.45
2023-02-21T20:33:56.660Z,60.00
2023-02-21T20:36:31.810Z,72.05
2023-02-21T20:38:59.561Z,69.05
2023-02-21T20:41:31.646Z,66.95
2023-02-21T20:43:59.697Z,72.47
2023-02-21T20:46:27.437Z,68.32
2023-02-21T20:48:58.555Z,71.70
2023-02-21T20:51:30.948Z,72.00
2023-02-21T20:54:00.448Z,69.20
2023-02-21T20:56:36.148Z,77.20
2023-02-21T20:59:05.021Z,77.93
2023-02-21T21:01:32.514Z,78.70
2023-02-21T21:03:59.958Z,67.03
2023-02-21T21:06:27.334Z,70.28
2023-02-21T21:08:54.714Z,76.05
2023-02-21T21:11:22.782Z,72.45
2023-02-21T21:13:50.227Z,78.22
2023-02-21T21:16:20.240Z,74.85
2023-02-21T21:18:47.718Z,76.30
2023-02-21T21:21:15.385Z,69.93
2023-02-21T21:23:43.110Z,71.47
2023-02-21T21:26:12.122Z,69.35
2023-02-21T21:28:40.803Z,76.75
2023-02-21T21:31:09.031Z,77.63
2023-02-21T21:33:36.494Z,82.13
2023-02-21T21:36:04.113Z,74.63
2023-02-21T21:38:31.799Z,74.85
2023-02-21T21:40:59.245Z,80.82
2023-02-21T21:43:28.446Z,81.43
2023-02-21T21:45:56.040Z,78.28
2023-02-21T21:48:24.895Z,77.47
2023-02-21T21:50:52.291Z,82.55
2023-02-21T21:53:20.172Z,67.65
2023-02-21T21:55:48.116Z,71.20
2023-02-21T21:58:15.571Z,84.13
2023-02-21T22:00:43.090Z,75.30
2023-02-21T22:03:14.465Z,83.78
2023-02-21T22:05:45.521Z,75.80
2023-02-21T22:08:17.329Z,79.28
2023-02-21T22:10:45.724Z,79.43
2023-02-21T22:13:20.697Z,74.78
2023-02-21T22:15:48.773Z,75.10
2023-02-21T22:18:19.402Z,76.20
2023-02-21T22:20:50.494Z,88.68
2023-02-21T22:23:24.408Z,75.18
2023-02-21T22:25:52.348Z,76.78
2023-02-21T22:28:19.758Z,77.55
2023-02-21T22:30:47.283Z,77.50
2023-02-21T22:33:18.723Z,79.30
2023-02-21T22:35:47.356Z,76.72
2023-02-21T22:38:17.397Z,75.75
2023-02-21T22:40:46.301Z,71.25
2023-02-21T22:43:14.389Z,76.95
2023-02-21T22:45:49.799Z,83.93
2023-02-21T22:48:20.442Z,82.95
2023-02-21T22:50:48.404Z,75.90
2023-02-21T22:53:19.024Z,75.13
2023-02-21T22:55:51.837Z,77.50
2023-02-21T22:58:20.607Z,78.38
2023-02-21T23:00:49.490Z,82.00
2023-02-21T23:03:17.943Z,76.65
2023-02-21T23:05:50.652Z,81.47
2023-02-21T23:08:20.560Z,75.57
2023-02-21T23:10:48.697Z,82.30
2023-02-21T23:13:19.025Z,87.68
2023-02-21T23:15:47.435Z,75.75
2023-02-21T23:18:23.320Z,80.70
2023-02-21T23:20:56.041Z,84.20
2023-02-21T23:23:27.314Z,86.93
2023-02-21T23:25:58.944Z,83.32
2023-02-21T23:28:29.147Z,91.43
2023-02-21T23:30:58.188Z,79.75
2023-02-21T23:33:29.240Z,83.18
2023-02-21T23:35:57.701Z,88.85
2023-02-21T23:38:28.353Z,92.88
2023-02-21T23:40:58.859Z,89.95
2023-02-21T23:43:29.598Z,80.53
2023-02-21T23:45:59.125Z,96.55
2023-02-21T23:48:27.052Z,87.30
2023-02-21T23:50:57.900Z,103.93
2023-02-21T23:53:28.820Z,90.72
2023-02-21T23:55:57.807Z,92.00
2023-02-21T23:58:27.786Z,87.65
